createdAt,value
2023-01-25T00:01:06.078Z,2.09
2023-01-25T00:11:07.291Z,2.00
2023-01-25T00:21:08.508Z,2.16
2023-01-25T00:31:09.754Z,2.07
2023-01-25T00:41:10.968Z,2.09
2023-01-25T00:51:12.203Z,2.02
2023-01-25T01:01:13.660Z,2.09
2023-01-25T01:11:14.939Z,1.94
2023-01-25T01:21:16.285Z,1.82
2023-01-25T01:31:17.663Z,1.71
2023-01-25T01:41:19.052Z,1.69
2023-01-25T01:51:20.323Z,1.73
2023-01-25T02:01:21.641Z,1.72
2023-01-25T02:11:22.897Z,1.71
2023-01-25T02:21:24.133Z,1.67
2023-01-25T02:31:25.499Z,1.69
2023-01-25T02:41:26.761Z,1.72
2023-01-25T02:51:28.032Z,1.65
2023-01-25T03:01:29.281Z,1.64
2023-01-25T03:11:30.518Z,1.59
2023-01-25T03:21:31.779Z,1.58
2023-01-25T03:31:33.043Z,1.62
2023-01-25T03:41:34.351Z,1.65
2023-01-25T03:51:35.561Z,1.62
2023-01-25T04:01:36.812Z,1.75
2023-01-25T04:11:38.038Z,1.62
2023-01-25T04:21:39.227Z,1.80
2023-01-25T04:31:40.493Z,1.63
2023-01-25T04:41:44.431Z,1.68
2023-01-25T05:14:08.433Z,1.57
2023-01-25T05:34:42.118Z,1.56
2023-01-25T06:27:51.419Z,1.03
2023-01-25T06:49:01.514Z,0.90
2023-01-25T06:59:25.050Z,1.02
2023-01-25T07:09:54.549Z,1.13
2023-01-25T07:20:09.235Z,1.16
2023-01-25T07:30:10.585Z,1.18
2023-01-25T07:40:21.030Z,1.26
2023-01-25T08:34:17.122Z,1.38
2023-01-25T09:27:35.367Z,1.54
2023-01-25T09:37:43.164Z,1.37
2023-01-25T09:47:44.451Z,1.38
2023-01-25T09:57:45.867Z,1.38
2023-01-25T10:07:47.131Z,1.42
2023-01-25T10:17:48.362Z,1.32
2023-01-25T10:27:50.118Z,1.56
2023-01-25T10:37:51.504Z,1.52
2023-01-25T10:47:52.749Z,1.45
2023-01-25T10:57:54.025Z,1.52
2023-01-25T11:07:55.240Z,1.48
2023-01-25T11:17:56.520Z,1.49
2023-01-25T11:27:57.801Z,1.51
2023-01-25T11:37:59.081Z,1.56
2023-01-25T11:48:01.586Z,1.58
2023-01-25T11:58:02.818Z,1.45
2023-01-25T12:08:06.970Z,1.54
2023-01-25T12:18:08.333Z,1.60
2023-01-25T12:28:09.563Z,1.49
2023-01-25T12:38:10.793Z,1.60
2023-01-25T12:48:13.013Z,1.62
2023-01-25T12:58:14.232Z,1.60
2023-01-25T13:08:23.275Z,1.63
2023-01-25T13:18:32.543Z,1.71
2023-01-25T13:28:33.797Z,1.86
2023-01-25T13:38:35.742Z,1.80
2023-01-25T13:48:38.335Z,1.77
2023-01-25T13:58:39.652Z,1.57
2023-01-25T14:08:40.919Z,1.75
2023-01-25T14:18:43.185Z,1.72
2023-01-25T14:28:47.769Z,1.71
2023-01-25T14:38:56.167Z,1.79
2023-01-25T14:48:57.485Z,1.84
2023-01-25T14:59:00.091Z,1.74
2023-01-25T15:09:01.561Z,1.78
2023-01-25T15:19:03.075Z,1.54
2023-01-25T15:29:04.309Z,1.52
2023-01-25T15:39:05.640Z,1.65
2023-01-25T15:49:06.911Z,1.63
2023-01-25T15:59:08.233Z,1.61
2023-01-25T16:09:09.506Z,1.53
2023-01-25T16:19:13.224Z,1.65
2023-01-25T16:29:15.019Z,1.61
2023-01-25T16:39:16.326Z,1.67
2023-01-25T16:49:17.557Z,1.69
2023-01-25T16:59:18.798Z,1.62
2023-01-25T17:09:23.972Z,1.60
2023-01-25T17:19:26.413Z,1.62
2023-01-25T17:29:27.644Z,1.55
2023-01-25T17:39:28.976Z,1.61
2023-01-25T17:49:30.656Z,1.53
2023-01-25T17:59:31.960Z,1.50
2023-01-25T18:09:35.668Z,1.39
2023-01-25T18:19:37.077Z,1.47
2023-01-25T18:29:38.523Z,1.48
2023-01-25T18:39:39.805Z,1.37
2023-01-25T18:49:41.712Z,1.43
2023-01-25T18:59:42.951Z,1.47
2023-01-25T19:09:45.105Z,1.39
2023-01-25T19:19:46.447Z,1.27
2023-01-25T19:29:47.688Z,1.35
2023-01-25T19:39:49.086Z,1.37
2023-01-25T19:49:50.326Z,1.28
2023-01-25T19:59:51.569Z,1.23
2023-01-25T20:09:52.810Z,1.13
2023-01-25T20:19:54.096Z,1.11
2023-01-25T20:29:55.365Z,1.10
2023-01-25T20:39:56.607Z,1.12
2023-01-25T20:49:57.877Z,1.01
2023-01-25T20:59:59.201Z,1.00
2023-01-25T21:10:00.471Z,1.02
2023-01-25T21:20:01.737Z,1.18
2023-01-25T21:30:03.627Z,1.31
2023-01-25T21:40:04.909Z,1.17
2023-01-25T21:50:24.979Z,1.22
2023-01-25T22:00:26.219Z,1.20
2023-01-25T22:10:27.519Z,1.09
2023-01-25T22:20:28.785Z,1.04
2023-01-25T22:30:31.086Z,1.02
2023-01-25T22:40:32.512Z,1.00
2023-01-25T22:50:33.817Z,0.98
2023-01-25T23:00:35.086Z,0.93
2023-01-25T23:10:36.331Z,0.99
2023-01-25T23:20:37.637Z,1.06
2023-01-25T23:30:38.927Z,0.95
2023-01-25T23:40:40.169Z,1.03
2023-01-25T23:50:41.459Z,1.09
